createdAt,value
2023-05-22T00:00:20.231Z,100759.47
2023-05-22T00:05:20.662Z,100760.91
2023-05-22T00:10:19.512Z,100755.97
2023-05-22T00:15:19.764Z,100762.22
2023-05-22T00:20:18.918Z,100769.47
2023-05-22T00:25:20.540Z,100770.25
2023-05-22T00:30:20.762Z,100771.91
2023-05-22T00:35:19.525Z,100770.13
2023-05-22T00:40:18.467Z,100763.63
2023-05-22T00:45:17.415Z,100765.19
2023-05-22T00:50:19.334Z,100750.66
2023-05-22T00:55:18.207Z,100758.22
2023-05-22T01:00:17.506Z,100745.75
2023-05-22T01:05:19.070Z,100753.41
2023-05-22T01:10:17.901Z,100742.97
2023-05-22T01:15:25.353Z,100732.78
2023-05-22T01:20:32.964Z,100732.81
2023-05-22T01:25:55.005Z,100732.06
2023-05-22T01:31:02.065Z,100728.16
2023-05-22T01:36:02.814Z,100729.31
2023-05-22T01:41:02.860Z,100714.75
2023-05-22T01:46:03.167Z,100721.25
2023-05-22T01:51:06.090Z,100714.66
2023-05-22T01:56:11.458Z,100728.00
2023-05-22T02:01:15.393Z,100722.41
2023-05-22T02:06:15.526Z,100722.41
2023-05-22T02:11:16.675Z,100722.56
2023-05-22T02:16:17.566Z,100731.91
2023-05-22T02:21:17.313Z,100736.78
2023-05-22T02:26:16.056Z,100741.66
2023-05-22T02:31:18.433Z,100738.44
2023-05-22T02:36:17.099Z,100737.63
2023-05-22T02:41:19.637Z,100728.34
2023-05-22T02:46:19.858Z,100741.28
2023-05-22T02:51:18.684Z,100744.94
2023-05-22T02:56:18.979Z,100738.06
2023-05-22T03:01:19.223Z,100747.56
2023-05-22T03:06:18.389Z,100750.88
2023-05-22T03:11:17.226Z,100743.72
2023-05-22T03:16:16.169Z,100747.53
2023-05-22T03:21:19.354Z,100739.47
2023-05-22T03:26:18.197Z,100738.13
2023-05-22T03:31:18.018Z,100750.13
2023-05-22T03:36:34.232Z,100744.94
2023-05-22T03:41:33.589Z,100740.19
2023-05-22T03:46:32.495Z,100739.34
2023-05-22T03:51:32.848Z,100750.09
2023-05-22T03:56:32.317Z,100740.50
2023-05-22T04:01:31.130Z,100739.53
2023-05-22T04:06:33.105Z,100743.38
2023-05-22T04:11:33.313Z,100740.69
2023-05-22T04:16:32.383Z,100746.13
2023-05-22T04:21:34.433Z,100753.81
2023-05-22T04:26:34.896Z,100750.00
2023-05-22T04:31:33.662Z,100754.28
2023-05-22T04:36:34.176Z,100755.63
2023-05-22T04:41:34.465Z,100753.09
2023-05-22T04:46:34.552Z,100761.75
2023-05-22T04:51:35.148Z,100756.84
2023-05-22T04:56:37.254Z,100764.75
2023-05-22T05:01:37.972Z,100760.56
2023-05-22T05:06:37.902Z,100755.53
2023-05-22T05:11:38.363Z,100761.94
2023-05-22T05:16:37.268Z,100760.75
2023-05-22T05:21:36.180Z,100748.56
2023-05-22T05:26:35.008Z,100756.00
2023-05-22T05:31:36.315Z,100757.16
2023-05-22T05:36:45.682Z,100760.41
2023-05-22T05:41:44.734Z,100759.16
2023-05-22T05:46:45.535Z,100767.34
2023-05-22T05:51:47.059Z,100770.56
2023-05-22T05:56:48.023Z,100766.53
2023-05-22T06:01:48.420Z,100771.75
2023-05-22T06:06:53.920Z,100767.53
2023-05-22T06:12:01.584Z,100779.41
2023-05-22T06:17:02.107Z,100775.38
2023-05-22T06:22:01.018Z,100782.41
2023-05-22T06:27:01.667Z,100778.78
2023-05-22T06:32:03.175Z,100781.72
2023-05-22T06:37:03.823Z,100773.69
2023-05-22T06:42:08.778Z,100766.03
2023-05-22T06:47:41.097Z,100772.03
2023-05-22T06:52:43.335Z,100756.88
2023-05-22T06:57:44.042Z,100760.97
2023-05-22T07:02:44.772Z,100766.75
2023-05-22T07:07:58.244Z,100756.91
2023-05-22T07:12:58.085Z,100764.44
2023-05-22T07:17:59.094Z,100767.78
2023-05-22T07:22:59.025Z,100755.06
2023-05-22T07:27:59.600Z,100760.34
2023-05-22T07:33:00.012Z,100763.03
2023-05-22T07:38:01.600Z,100759.91
2023-05-22T07:43:05.746Z,100759.22
2023-05-22T07:48:06.499Z,100766.81
2023-05-22T07:53:08.462Z,100749.03
2023-05-22T07:58:11.191Z,100751.56
2023-05-22T08:03:15.248Z,100747.94
2023-05-22T08:08:14.177Z,100754.63
2023-05-22T08:13:16.871Z,100754.97
2023-05-22T08:18:17.060Z,100750.22
2023-05-22T08:23:24.576Z,100745.13
2023-05-22T08:28:23.506Z,100740.19
2023-05-22T08:33:23.885Z,100734.63
2023-05-22T08:38:22.736Z,100732.84
2023-05-22T08:43:22.080Z,100736.28
2023-05-22T08:48:24.574Z,100730.66
2023-05-22T08:53:25.896Z,100721.28
2023-05-22T08:58:26.069Z,100719.25
2023-05-22T09:03:28.718Z,100711.06
2023-05-22T09:08:28.677Z,100708.66
2023-05-22T09:13:28.609Z,100705.22
2023-05-22T09:18:30.381Z,100695.59
2023-05-22T09:23:29.599Z,100690.41
2023-05-22T09:28:29.392Z,100689.78
2023-05-22T09:33:30.860Z,100688.56
2023-05-22T09:38:31.597Z,100680.63
2023-05-22T09:43:30.519Z,100679.13
2023-05-22T09:48:30.843Z,100676.81
2023-05-22T09:53:31.092Z,100667.22
2023-05-22T09:58:32.337Z,100662.06
2023-05-22T10:03:32.881Z,100664.41
2023-05-22T10:08:37.075Z,100663.63
2023-05-22T10:13:36.859Z,100660.94
2023-05-22T10:18:39.162Z,100649.28
2023-05-22T10:23:38.253Z,100650.09
2023-05-22T10:28:43.075Z,100649.69
2023-05-22T10:33:49.289Z,100642.31
2023-05-22T10:39:05.829Z,100633.34
2023-05-22T10:44:04.852Z,100627.13
2023-05-22T10:49:05.048Z,100620.09
2023-05-22T10:54:06.038Z,100613.41
2023-05-22T10:59:07.618Z,100601.59
2023-05-22T11:04:13.025Z,100596.88
2023-05-22T11:09:21.118Z,100581.22
2023-05-22T11:14:21.548Z,100586.22
2023-05-22T11:19:24.245Z,100576.94
2023-05-22T11:24:23.306Z,100571.97
2023-05-22T11:29:23.438Z,100567.59
2023-05-22T11:34:23.884Z,100563.97
2023-05-22T11:39:24.420Z,100569.31
2023-05-22T11:44:29.672Z,100575.97
2023-05-22T11:49:31.580Z,100572.06
2023-05-22T11:54:34.059Z,100559.38
2023-05-22T11:59:34.076Z,100554.06
2023-05-22T12:04:35.715Z,100541.44
2023-05-22T12:09:34.608Z,100534.91
2023-05-22T12:14:33.947Z,100529.41
2023-05-22T12:19:32.727Z,100512.84
2023-05-22T12:24:41.015Z,100507.31
2023-05-22T12:29:40.743Z,100497.19
2023-05-22T12:34:45.081Z,100486.00
2023-05-22T12:39:55.148Z,100484.22
2023-05-22T12:44:55.669Z,100480.78
2023-05-22T12:49:54.672Z,100472.91
2023-05-22T12:54:54.796Z,100476.31
2023-05-22T12:59:53.556Z,100465.53
2023-05-22T13:04:52.305Z,100474.19
2023-05-22T13:09:51.705Z,100474.72
2023-05-22T13:14:51.504Z,100469.88
2023-05-22T13:19:50.420Z,100459.81
2023-05-22T13:24:49.124Z,100458.56
2023-05-22T13:29:47.925Z,100461.84
2023-05-22T13:34:48.101Z,100455.72
2023-05-22T13:39:48.061Z,100455.03
2023-05-22T13:44:47.003Z,100462.91
2023-05-22T13:49:47.320Z,100475.91
2023-05-22T13:54:46.021Z,100469.91
2023-05-22T13:59:44.832Z,100454.13
2023-05-22T14:04:43.699Z,100455.72
2023-05-22T14:09:43.879Z,100465.25
2023-05-22T14:14:42.605Z,100460.13
2023-05-22T14:19:41.365Z,100456.66
2023-05-22T14:24:40.241Z,100458.13
2023-05-22T14:29:40.417Z,100463.56
2023-05-22T14:34:39.573Z,100463.09
2023-05-22T14:39:38.576Z,100450.22
2023-05-22T14:44:37.354Z,100457.50
2023-05-22T14:49:37.478Z,100452.31
2023-05-22T14:54:36.221Z,100455.25
2023-05-22T14:59:35.385Z,100456.81
2023-05-22T15:04:34.219Z,100453.59
2023-05-22T15:09:34.258Z,100447.34
2023-05-22T15:14:33.069Z,100444.75
2023-05-22T15:19:31.918Z,100440.03
2023-05-22T15:24:31.154Z,100449.44
2023-05-22T15:29:34.148Z,100446.13
2023-05-22T15:34:35.241Z,100443.56
2023-05-22T15:39:35.048Z,100441.97
2023-05-22T15:44:35.129Z,100438.06
2023-05-22T15:49:33.952Z,100435.28
2023-05-22T15:54:32.668Z,100436.72
2023-05-22T15:59:31.700Z,100444.59
2023-05-22T16:04:32.319Z,100444.91
2023-05-22T16:09:32.779Z,100446.47
2023-05-22T16:14:32.834Z,100454.16
2023-05-22T16:19:34.236Z,100447.75
2023-05-22T16:24:33.394Z,100450.09
2023-05-22T16:29:32.808Z,100453.13
2023-05-22T16:34:34.239Z,100450.63
2023-05-22T16:39:35.592Z,100460.03
2023-05-22T16:44:34.409Z,100463.16
2023-05-22T16:49:34.651Z,100456.00
2023-05-22T16:54:33.443Z,100463.41
2023-05-22T16:59:32.785Z,100462.88
2023-05-22T17:04:32.425Z,100474.88
2023-05-22T17:09:38.645Z,100481.34
2023-05-22T17:14:37.945Z,100485.81
2023-05-22T17:19:37.472Z,100490.88
2023-05-22T17:24:37.994Z,100493.31
2023-05-22T17:29:40.292Z,100511.44
2023-05-22T17:34:39.778Z,100518.09
2023-05-22T17:39:48.532Z,100516.25
2023-05-22T17:44:47.790Z,100525.50
2023-05-22T17:49:47.152Z,100525.16
2023-05-22T17:54:48.087Z,100545.53
2023-05-22T17:59:46.996Z,100546.91
2023-05-22T18:04:46.426Z,100555.84
2023-05-22T18:09:47.456Z,100570.69
2023-05-22T18:14:47.722Z,100578.72
2023-05-22T18:19:50.019Z,100581.19
2023-05-22T18:24:52.821Z,100581.94
2023-05-22T18:29:51.908Z,100582.75
2023-05-22T18:34:52.056Z,100582.25
2023-05-22T18:39:52.366Z,100587.06
2023-05-22T18:44:52.384Z,100594.53
2023-05-22T18:49:51.138Z,100596.44
2023-05-22T18:54:51.273Z,100603.06
2023-05-22T18:59:51.032Z,100600.63
2023-05-22T19:04:50.580Z,100610.31
2023-05-22T19:09:49.794Z,100615.72
2023-05-22T19:14:50.072Z,100612.38
2023-05-22T19:19:48.811Z,100620.31
2023-05-22T19:24:47.604Z,100636.63
2023-05-22T19:29:46.544Z,100641.38
2023-05-22T19:34:47.675Z,100644.22
2023-05-22T19:39:46.471Z,100644.56
2023-05-22T19:44:45.245Z,100648.25
2023-05-22T19:49:44.045Z,100646.91
2023-05-22T19:54:44.267Z,100650.38
2023-05-22T19:59:43.147Z,100651.72
2023-05-22T20:04:43.149Z,100648.34
2023-05-22T20:09:43.338Z,100651.72
2023-05-22T20:14:42.210Z,100649.03
2023-05-22T20:19:45.334Z,100651.72
2023-05-22T20:24:45.535Z,100649.34
2023-05-22T20:29:44.282Z,100649.50
2023-05-22T20:34:43.155Z,100645.97
2023-05-22T20:39:42.968Z,100648.97
2023-05-22T20:44:43.157Z,100657.84
2023-05-22T20:49:41.996Z,100656.13
2023-05-22T20:54:41.858Z,100663.97
2023-05-22T20:59:42.030Z,100668.63
2023-05-22T21:04:40.736Z,100673.09
2023-05-22T21:09:39.561Z,100676.59
2023-05-22T21:14:47.200Z,100667.81
2023-05-22T21:19:46.328Z,100677.50
2023-05-22T21:24:45.031Z,100679.97
2023-05-22T21:29:45.198Z,100688.66
2023-05-22T21:34:43.919Z,100686.47
2023-05-22T21:39:42.804Z,100680.97
2023-05-22T21:44:41.649Z,100676.94
2023-05-22T21:49:41.725Z,100683.59
2023-05-22T21:54:40.829Z,100690.59
2023-05-22T21:59:40.539Z,100679.81
2023-05-22T22:04:39.320Z,100673.00
2023-05-22T22:09:39.413Z,100674.09
2023-05-22T22:14:38.263Z,100673.78
2023-05-22T22:19:37.200Z,100678.66
2023-05-22T22:24:36.282Z,100678.72
2023-05-22T22:29:36.475Z,100677.63
2023-05-22T22:34:35.163Z,100676.00
2023-05-22T22:39:34.385Z,100663.97
2023-05-22T22:44:33.456Z,100652.63
2023-05-22T22:49:34.155Z,100642.97
2023-05-22T22:54:32.972Z,100645.53
2023-05-22T22:59:31.934Z,100647.66
2023-05-22T23:04:31.463Z,100644.44
2023-05-22T23:09:31.689Z,100627.72
2023-05-22T23:14:30.771Z,100635.28
2023-05-22T23:19:29.567Z,100632.66
2023-05-22T23:24:28.572Z,100631.56
2023-05-22T23:29:28.791Z,100633.13
2023-05-22T23:34:27.611Z,100636.38
2023-05-22T23:39:26.846Z,100634.44
2023-05-22T23:44:25.682Z,100630.41
2023-05-22T23:49:26.551Z,100630.97
2023-05-22T23:54:25.376Z,100637.59
2023-05-22T23:59:24.227Z,100640.09
